createdAt,value
2023-02-22T00:02:25.861Z,-3.06
2023-02-22T00:04:55.309Z,-3.15
2023-02-22T00:07:24.439Z,-3.11
2023-02-22T00:09:53.141Z,-3.05
2023-02-22T00:12:21.927Z,-3.08
2023-02-22T00:14:51.969Z,-3.05
2023-02-22T00:17:21.286Z,-2.90
2023-02-22T00:19:52.347Z,-2.92
2023-02-22T00:22:21.398Z,-2.92
2023-02-22T00:24:50.817Z,-2.86
2023-02-22T00:27:19.603Z,-3.00
2023-02-22T00:29:51.140Z,-2.99
2023-02-22T00:32:19.927Z,-3.00
2023-02-22T00:34:53.300Z,-3.27
2023-02-22T00:37:22.354Z,-2.78
2023-02-22T00:39:52.893Z,-2.86
2023-02-22T00:42:22.104Z,-2.85
2023-02-22T00:44:50.834Z,-3.11
2023-02-22T00:47:19.485Z,-2.65
2023-02-22T00:49:49.347Z,-2.72
2023-02-22T00:52:17.999Z,-2.75
2023-02-22T00:54:47.276Z,-2.61
2023-02-22T00:57:18.424Z,-2.69
2023-02-22T00:59:48.250Z,-2.70
2023-02-22T01:02:19.205Z,-2.60
2023-02-22T01:04:49.063Z,-2.99
2023-02-22T01:07:17.894Z,-2.56
2023-02-22T01:09:46.520Z,-2.45
2023-02-22T01:12:16.803Z,-2.44
2023-02-22T01:14:45.627Z,-2.39
2023-02-22T01:17:14.161Z,-2.35
2023-02-22T01:19:43.319Z,-2.18
2023-02-22T01:22:12.133Z,-2.29
2023-02-22T01:24:40.786Z,-2.24
2023-02-22T01:27:09.599Z,-2.14
2023-02-22T01:29:40.047Z,-2.23
2023-02-22T01:32:08.931Z,-2.10
2023-02-22T01:34:37.565Z,-2.09
2023-02-22T01:37:07.282Z,-2.19
2023-02-22T01:39:35.990Z,-2.08
2023-02-22T01:42:04.856Z,-2.23
2023-02-22T01:44:36.423Z,-2.22
2023-02-22T01:47:07.428Z,-2.20
2023-02-22T01:49:39.798Z,-2.05
2023-02-22T01:52:12.232Z,-2.16
2023-02-22T01:54:47.509Z,-2.14
2023-02-22T01:57:24.488Z,-2.04
2023-02-22T02:00:02.848Z,-2.06
2023-02-22T02:02:52.023Z,-1.93
2023-02-22T02:05:25.641Z,-1.90
2023-02-22T02:07:54.952Z,-1.89
2023-02-22T02:10:24.985Z,-2.02
2023-02-22T02:12:54.814Z,-1.92
2023-02-22T02:15:31.490Z,-2.33
2023-02-22T02:18:04.661Z,-2.03
2023-02-22T02:20:45.416Z,-1.86
2023-02-22T02:23:47.464Z,-1.92
2023-02-22T02:26:53.437Z,-2.00
2023-02-22T02:29:42.076Z,-2.18
2023-02-22T02:32:22.758Z,-2.04
2023-02-22T02:35:02.851Z,-2.07
2023-02-22T02:37:41.401Z,-2.09
2023-02-22T02:40:26.320Z,-2.33
2023-02-22T02:43:07.985Z,-2.29
2023-02-22T02:46:06.511Z,-2.24
2023-02-22T02:48:41.111Z,-2.32
2023-02-22T02:51:15.259Z,-2.18
2023-02-22T02:53:48.814Z,-2.58
2023-02-22T02:56:18.818Z,-2.80
2023-02-22T02:58:52.187Z,-2.15
2023-02-22T03:01:23.907Z,-2.09
2023-02-22T03:03:59.836Z,-2.09
2023-02-22T03:06:50.364Z,-2.04
2023-02-22T03:09:59.272Z,-2.09
2023-02-22T03:12:39.271Z,-1.98
2023-02-22T03:15:33.319Z,-1.98
2023-02-22T03:18:11.410Z,-2.45
2023-02-22T03:21:00.836Z,-2.42
2023-02-22T03:23:48.767Z,-2.38
2023-02-22T03:26:26.321Z,-1.91
2023-02-22T03:28:59.568Z,-1.87
2023-02-22T03:31:37.962Z,-1.96
2023-02-22T03:34:14.945Z,-2.45
2023-02-22T03:36:54.219Z,-1.91
2023-02-22T03:39:31.549Z,-2.10
2023-02-22T03:42:12.836Z,-1.68
2023-02-22T03:44:44.423Z,-1.77
2023-02-22T03:47:22.678Z,-1.50
2023-02-22T03:50:07.630Z,-1.39
2023-02-22T03:52:38.409Z,-1.24
2023-02-22T03:55:14.097Z,-1.28
2023-02-22T03:57:49.700Z,-1.25
2023-02-22T04:00:27.413Z,-1.21
2023-02-22T04:02:57.433Z,-1.05
2023-02-22T04:05:26.947Z,-1.05
2023-02-22T04:07:58.578Z,-0.94
2023-02-22T04:10:28.891Z,-1.38
2023-02-22T04:12:57.544Z,-1.01
2023-02-22T04:15:26.668Z,-0.76
2023-02-22T04:18:01.551Z,-0.88
2023-02-22T04:20:32.496Z,-0.74
2023-02-22T04:23:06.704Z,-0.88
2023-02-22T04:25:38.903Z,-0.74
2023-02-22T04:28:12.940Z,-0.71
2023-02-22T04:31:10.688Z,-0.80
2023-02-22T04:33:39.801Z,-0.57
2023-02-22T04:36:11.528Z,-0.51
2023-02-22T04:38:40.908Z,-1.24
2023-02-22T04:41:09.619Z,-0.69
2023-02-22T04:43:38.395Z,-0.46
2023-02-22T04:46:17.184Z,-0.53
2023-02-22T04:48:49.204Z,-0.72
2023-02-22T04:51:22.059Z,-0.34
2023-02-22T04:54:10.803Z,-0.34
2023-02-22T04:56:43.338Z,-0.14
2023-02-22T04:59:12.030Z,-0.09
2023-02-22T05:01:44.740Z,-0.12
2023-02-22T05:04:13.473Z,-0.11
2023-02-22T05:06:42.850Z,-0.05
2023-02-22T05:09:11.572Z,0.03
2023-02-22T05:11:40.822Z,0.04
2023-02-22T05:14:09.683Z,0.11
2023-02-22T05:16:38.551Z,0.14
2023-02-22T05:19:07.308Z,-0.01
2023-02-22T05:21:35.766Z,0.14
2023-02-22T05:24:04.476Z,0.17
2023-02-22T05:26:33.661Z,0.23
2023-02-22T05:29:02.512Z,-0.18
2023-02-22T05:31:31.173Z,0.21
2023-02-22T05:34:01.919Z,0.32
2023-02-22T05:36:32.025Z,-0.05
2023-02-22T05:39:00.721Z,-0.02
2023-02-22T05:41:29.610Z,0.47
2023-02-22T05:43:58.428Z,0.59
2023-02-22T05:46:27.131Z,0.56
2023-02-22T05:48:56.220Z,0.66
2023-02-22T05:51:25.015Z,0.75
2023-02-22T05:53:53.807Z,0.78
2023-02-22T05:56:27.991Z,0.82
2023-02-22T05:58:59.185Z,0.62
2023-02-22T06:01:27.948Z,0.78
2023-02-22T06:03:59.702Z,0.99
2023-02-22T06:06:28.085Z,0.98
2023-02-22T06:08:56.727Z,1.03
2023-02-22T06:11:25.449Z,0.82
2023-02-22T06:13:54.534Z,1.11
2023-02-22T06:16:24.360Z,1.26
2023-02-22T06:18:52.980Z,1.29
2023-02-22T06:21:21.811Z,1.14
2023-02-22T06:23:53.067Z,1.45
2023-02-22T06:26:26.374Z,1.27
2023-02-22T06:28:55.353Z,1.32
2023-02-22T06:31:24.713Z,1.34
2023-02-22T06:33:54.030Z,1.33
2023-02-22T06:36:22.935Z,1.30
2023-02-22T06:38:51.734Z,1.24
2023-02-22T06:41:20.481Z,1.19
2023-02-22T06:43:49.573Z,1.31
2023-02-22T06:46:18.188Z,1.19
2023-02-22T06:48:46.969Z,0.85
2023-02-22T06:51:16.143Z,1.35
2023-02-22T06:53:45.918Z,1.35
2023-02-22T06:56:15.440Z,1.28
2023-02-22T06:58:44.301Z,1.45
2023-02-22T07:01:13.513Z,1.38
2023-02-22T07:03:43.742Z,1.58
2023-02-22T07:06:13.099Z,1.49
2023-02-22T07:08:41.947Z,1.19
2023-02-22T07:11:10.691Z,1.29
2023-02-22T07:13:39.416Z,1.70
2023-02-22T07:16:08.176Z,1.67
2023-02-22T07:18:36.941Z,1.27
2023-02-22T07:21:05.985Z,1.55
2023-02-22T07:23:34.833Z,1.80
2023-02-22T07:26:05.878Z,1.75
2023-02-22T07:28:34.648Z,1.80
2023-02-22T07:31:03.439Z,1.71
2023-02-22T07:33:32.237Z,1.67
2023-02-22T07:36:01.122Z,1.81
2023-02-22T07:38:29.908Z,1.47
2023-02-22T07:40:59.127Z,1.55
2023-02-22T07:43:32.333Z,1.65
2023-02-22T07:46:03.617Z,1.58
2023-02-22T07:48:32.996Z,1.30
2023-02-22T07:51:01.868Z,1.74
2023-02-22T07:53:34.212Z,1.78
2023-02-22T07:56:06.277Z,1.93
2023-02-22T07:58:35.973Z,1.96
2023-02-22T08:01:05.279Z,2.02
2023-02-22T08:03:37.117Z,2.28
2023-02-22T08:06:08.364Z,2.31
2023-02-22T08:08:37.364Z,1.88
2023-02-22T08:11:06.821Z,2.19
2023-02-22T08:13:37.901Z,2.48
2023-02-22T08:16:06.997Z,2.49
2023-02-22T08:18:36.123Z,2.61
2023-02-22T08:21:05.258Z,2.38
2023-02-22T08:23:34.119Z,2.74
2023-02-22T08:26:10.798Z,2.32
2023-02-22T08:28:39.443Z,2.60
2023-02-22T08:31:09.604Z,2.66
2023-02-22T08:33:38.521Z,2.67
2023-02-22T08:36:07.518Z,2.20
2023-02-22T08:38:36.367Z,2.70
2023-02-22T08:41:05.317Z,2.89
2023-02-22T08:43:33.906Z,2.65
2023-02-22T08:46:02.841Z,2.57
2023-02-22T08:48:31.609Z,2.66
2023-02-22T08:51:00.352Z,2.60
2023-02-22T08:53:29.207Z,2.54
2023-02-22T08:55:58.177Z,2.48
2023-02-22T08:58:26.955Z,2.37
2023-02-22T09:00:55.857Z,2.25
2023-02-22T09:03:24.569Z,2.05
2023-02-22T09:05:53.543Z,2.29
2023-02-22T09:08:23.096Z,2.23
2023-02-22T09:10:52.377Z,2.18
2023-02-22T09:13:21.182Z,2.20
2023-02-22T09:15:50.024Z,2.11
2023-02-22T09:18:19.735Z,2.20
2023-02-22T09:20:48.715Z,1.88
2023-02-22T09:23:17.299Z,2.23
2023-02-22T09:25:46.155Z,2.32
2023-02-22T09:28:15.342Z,2.26
2023-02-22T09:30:44.609Z,2.17
2023-02-22T09:33:18.525Z,2.28
2023-02-22T09:35:50.547Z,2.09
2023-02-22T09:38:23.866Z,2.13
2023-02-22T09:41:15.508Z,2.16
2023-02-22T09:44:23.915Z,2.11
2023-02-22T09:46:55.316Z,2.07
2023-02-22T09:49:40.354Z,1.86
2023-02-22T09:52:28.553Z,1.78
2023-02-22T09:55:09.025Z,1.80
2023-02-22T09:57:45.261Z,1.72
2023-02-22T10:00:23.147Z,1.73
2023-02-22T10:03:21.297Z,1.81
2023-02-22T10:06:03.144Z,1.76
2023-02-22T10:08:34.856Z,1.74
2023-02-22T10:11:20.843Z,1.85
2023-02-22T10:14:08.162Z,1.84
2023-02-22T10:16:37.810Z,1.99
2023-02-22T10:19:18.381Z,1.98
2023-02-22T10:21:54.259Z,1.94
2023-02-22T10:24:40.365Z,1.88
2023-02-22T10:27:19.922Z,1.98
2023-02-22T10:29:55.239Z,1.87
2023-02-22T10:32:30.754Z,1.95
2023-02-22T10:35:01.772Z,1.97
2023-02-22T10:37:33.079Z,1.83
2023-02-22T10:40:14.203Z,1.92
2023-02-22T10:42:43.003Z,1.92
2023-02-22T10:45:23.783Z,1.91
2023-02-22T10:47:56.742Z,1.73
2023-02-22T10:50:30.547Z,1.84
2023-02-22T10:52:59.408Z,1.65
2023-02-22T10:55:28.279Z,1.29
2023-02-22T10:58:07.745Z,1.61
2023-02-22T11:00:39.830Z,1.45
2023-02-22T11:03:24.785Z,1.51
2023-02-22T11:05:53.475Z,1.24
2023-02-22T11:08:22.383Z,1.34
2023-02-22T11:10:54.124Z,1.19
2023-02-22T11:13:40.920Z,0.97
2023-02-22T11:16:30.083Z,0.83
2023-02-22T11:19:12.897Z,0.83
2023-02-22T11:21:41.768Z,0.75
2023-02-22T11:24:13.468Z,0.63
2023-02-22T11:26:50.138Z,0.62
2023-02-22T11:29:33.397Z,0.62
2023-02-22T11:32:25.226Z,0.47
2023-02-22T11:35:08.331Z,0.04
2023-02-22T11:37:48.886Z,0.21
2023-02-22T11:40:22.901Z,0.40
2023-02-22T11:43:12.906Z,-0.07
2023-02-22T11:46:08.952Z,0.22
2023-02-22T11:48:42.563Z,0.06
2023-02-22T11:51:25.256Z,-0.02
2023-02-22T11:54:26.116Z,0.02
2023-02-22T11:57:17.106Z,-0.03
2023-02-22T12:00:12.933Z,-0.26
2023-02-22T12:03:12.989Z,-0.20
2023-02-22T12:06:07.976Z,-0.22
2023-02-22T12:08:45.666Z,-0.23
2023-02-22T12:11:40.870Z,-0.26
2023-02-22T12:14:26.055Z,-0.25
2023-02-22T12:16:55.595Z,-0.29
2023-02-22T12:19:53.464Z,-0.23
2023-02-22T12:22:36.269Z,-0.24
2023-02-22T12:25:35.144Z,-0.23
2023-02-22T12:28:31.457Z,-0.10
2023-02-22T12:31:25.035Z,-0.06
2023-02-22T12:34:52.257Z,-0.02
2023-02-22T12:37:30.032Z,0.04
2023-02-22T12:40:24.091Z,0.08
2023-02-22T12:43:01.988Z,0.04
2023-02-22T12:46:12.357Z,0.15
2023-02-22T12:49:02.188Z,0.34
2023-02-22T12:51:46.112Z,0.41
2023-02-22T12:54:51.917Z,0.43
2023-02-22T12:57:48.830Z,0.45
2023-02-22T13:00:29.400Z,0.54
2023-02-22T13:03:29.258Z,0.36
2023-02-22T13:06:34.857Z,0.53
2023-02-22T13:09:21.599Z,0.59
2023-02-22T13:11:50.595Z,0.58
2023-02-22T13:14:30.881Z,0.59
2023-02-22T13:17:15.792Z,0.54
2023-02-22T13:20:19.170Z,0.51
2023-02-22T13:23:16.108Z,0.54
2023-02-22T13:26:08.817Z,0.52
2023-02-22T13:28:41.037Z,0.48
2023-02-22T13:31:30.476Z,0.43
2023-02-22T13:34:31.462Z,0.42
2023-02-22T13:37:18.767Z,0.35
2023-02-22T13:40:03.967Z,0.30
2023-02-22T13:42:38.180Z,0.21
2023-02-22T13:45:37.326Z,0.07
2023-02-22T13:48:26.700Z,0.18
2023-02-22T13:51:33.522Z,0.11
2023-02-22T13:54:14.752Z,0.11
2023-02-22T13:56:46.254Z,-0.07
2023-02-22T13:59:48.248Z,0.01
2023-02-22T14:03:03.041Z,0.13
2023-02-22T14:05:38.014Z,0.20
2023-02-22T14:08:07.460Z,0.15
2023-02-22T14:10:56.296Z,0.15
2023-02-22T14:13:30.001Z,0.13
2023-02-22T14:16:02.076Z,0.21
2023-02-22T14:18:37.125Z,-0.01
2023-02-22T14:21:08.749Z,0.14
2023-02-22T14:23:43.203Z,0.22
2023-02-22T14:26:31.669Z,0.20
2023-02-22T14:29:03.665Z,0.21
2023-02-22T14:31:45.092Z,-0.22
2023-02-22T14:34:32.566Z,0.20
2023-02-22T14:37:05.945Z,0.23
2023-02-22T14:39:51.138Z,0.25
2023-02-22T14:42:26.330Z,0.25
2023-02-22T14:45:11.313Z,0.26
2023-02-22T14:48:04.860Z,0.22
2023-02-22T14:50:45.016Z,0.12
2023-02-22T14:53:14.046Z,0.24
2023-02-22T14:56:21.764Z,0.20
2023-02-22T14:59:00.923Z,-0.26
2023-02-22T15:01:52.676Z,0.18
2023-02-22T15:04:31.612Z,-0.25
2023-02-22T15:07:08.832Z,-0.24
2023-02-22T15:09:38.131Z,0.16
2023-02-22T15:12:08.648Z,0.21
2023-02-22T15:14:42.580Z,0.10
2023-02-22T15:17:25.637Z,0.08
2023-02-22T15:19:55.791Z,0.05
2023-02-22T15:22:28.086Z,0.08
2023-02-22T15:25:08.367Z,0.05
2023-02-22T15:27:38.683Z,0.12
2023-02-22T15:30:19.496Z,0.01
2023-02-22T15:33:02.968Z,0.03
2023-02-22T15:35:34.304Z,0.04
2023-02-22T15:38:11.801Z,0.07
2023-02-22T15:40:43.955Z,-0.10
2023-02-22T15:43:40.635Z,0.01
2023-02-22T15:46:10.210Z,-0.06
2023-02-22T15:48:41.983Z,-0.17
2023-02-22T15:51:15.250Z,-0.24
2023-02-22T15:53:52.348Z,-0.19
2023-02-22T15:56:30.743Z,-0.24
2023-02-22T15:59:13.979Z,-0.20
2023-02-22T16:01:46.825Z,-0.25
2023-02-22T16:04:24.466Z,-0.33
2023-02-22T16:07:03.600Z,-0.33
2023-02-22T16:09:33.862Z,-0.34
2023-02-22T16:12:29.106Z,-0.24
2023-02-22T16:14:58.885Z,-0.29
2023-02-22T16:17:42.699Z,-0.68
2023-02-22T16:20:18.464Z,-0.28
2023-02-22T16:23:01.383Z,-0.37
2023-02-22T16:25:43.557Z,-0.37
2023-02-22T16:28:34.601Z,-0.37
2023-02-22T16:31:04.539Z,-0.51
2023-02-22T16:33:34.500Z,-0.48
2023-02-22T16:36:08.817Z,-0.50
2023-02-22T16:38:39.926Z,-0.92
2023-02-22T16:41:09.025Z,-0.58
2023-02-22T16:43:38.126Z,-0.49
2023-02-22T16:46:08.171Z,-0.54
2023-02-22T16:48:39.942Z,-0.70
2023-02-22T16:51:20.079Z,-0.74
2023-02-22T16:53:50.026Z,-0.55
2023-02-22T16:56:21.083Z,-0.62
2023-02-22T16:58:51.491Z,-0.70
2023-02-22T17:01:21.234Z,-0.52
2023-02-22T17:03:51.610Z,-0.63
2023-02-22T17:06:20.789Z,-0.86
2023-02-22T17:08:52.540Z,-0.66
2023-02-22T17:11:23.502Z,-0.70
2023-02-22T17:13:57.969Z,-0.64
2023-02-22T17:16:28.234Z,-0.58
2023-02-22T17:18:56.996Z,-0.66
2023-02-22T17:21:25.767Z,-1.26
2023-02-22T17:23:54.494Z,-0.77
2023-02-22T17:26:24.293Z,-0.79
2023-02-22T17:28:53.058Z,-0.72
2023-02-22T17:31:31.496Z,-0.77
2023-02-22T17:34:03.672Z,-0.77
2023-02-22T17:36:34.118Z,-0.90
2023-02-22T17:39:04.094Z,-0.92
2023-02-22T17:41:33.282Z,-1.07
2023-02-22T17:44:02.061Z,-0.97
2023-02-22T17:46:30.912Z,-1.05
2023-02-22T17:48:59.706Z,-1.05
2023-02-22T17:51:28.423Z,-1.05
2023-02-22T17:53:57.052Z,-1.09
2023-02-22T17:56:26.356Z,-0.88
2023-02-22T17:58:56.138Z,-1.03
2023-02-22T18:01:30.841Z,-1.03
2023-02-22T18:04:02.298Z,-1.00
2023-02-22T18:06:33.390Z,-0.95
2023-02-22T18:09:02.458Z,-1.02
2023-02-22T18:11:33.278Z,-0.98
2023-02-22T18:14:01.901Z,-0.83
2023-02-22T18:16:30.756Z,-1.01
2023-02-22T18:19:02.224Z,-0.87
2023-02-22T18:21:31.210Z,-0.84
2023-02-22T18:24:00.440Z,-0.96
2023-02-22T18:26:29.694Z,-1.27
2023-02-22T18:28:58.558Z,-0.80
2023-02-22T18:31:27.513Z,-0.96
2023-02-22T18:33:58.271Z,-0.81
2023-02-22T18:36:27.457Z,-0.79
2023-02-22T18:38:56.550Z,-0.72
2023-02-22T18:41:26.063Z,-0.72
2023-02-22T18:43:58.346Z,-0.82
2023-02-22T18:46:27.310Z,-0.79
2023-02-22T18:48:57.473Z,-0.73
2023-02-22T18:51:26.878Z,-0.67
2023-02-22T18:54:00.929Z,-0.66
2023-02-22T18:56:32.670Z,-0.70
2023-02-22T18:59:04.282Z,-0.69
2023-02-22T19:01:39.472Z,-0.62
2023-02-22T19:04:10.772Z,-0.53
2023-02-22T19:06:40.063Z,-0.55
2023-02-22T19:09:09.330Z,-0.61
2023-02-22T19:11:40.922Z,-0.44
2023-02-22T19:14:10.405Z,-0.47
2023-02-22T19:16:39.873Z,-0.54
2023-02-22T19:19:08.593Z,-0.50
2023-02-22T19:21:38.331Z,-0.45
2023-02-22T19:24:10.010Z,-0.39
2023-02-22T19:26:40.622Z,-0.39
2023-02-22T19:29:09.271Z,-0.43
2023-02-22T19:31:40.076Z,-0.35
2023-02-22T19:34:12.090Z,-0.50
2023-02-22T19:36:48.347Z,-0.35
2023-02-22T19:41:49.778Z,-0.24
2023-02-22T19:44:18.390Z,-0.46
2023-02-22T19:46:49.535Z,-0.42
2023-02-22T19:49:18.545Z,-0.36
2023-02-22T19:51:47.324Z,-0.39
2023-02-22T19:54:26.287Z,-0.39
2023-02-22T19:56:55.047Z,-0.70
2023-02-22T19:59:27.274Z,-0.37
2023-02-22T20:01:57.344Z,-0.31
2023-02-22T20:04:26.757Z,-0.20
2023-02-22T20:06:55.905Z,-0.31
2023-02-22T20:09:30.520Z,-0.25
2023-02-22T20:11:59.371Z,-0.23
2023-02-22T20:14:29.092Z,-0.11
2023-02-22T20:16:59.386Z,-0.35
2023-02-22T20:19:29.208Z,-0.17
2023-02-22T20:21:58.367Z,-0.52
2023-02-22T20:24:28.379Z,-0.07
2023-02-22T20:26:58.885Z,-0.07
2023-02-22T20:29:30.526Z,-0.09
2023-02-22T20:32:01.536Z,-0.07
2023-02-22T20:34:34.407Z,0.02
2023-02-22T20:37:03.807Z,-0.10
2023-02-22T20:39:32.676Z,-0.13
2023-02-22T20:42:01.406Z,-0.01
2023-02-22T20:44:30.829Z,0.04
2023-02-22T20:46:59.634Z,-0.03
2023-02-22T20:49:28.393Z,0.09
2023-02-22T20:51:57.245Z,0.12
2023-02-22T20:54:25.990Z,0.13
2023-02-22T20:56:54.745Z,-0.26
2023-02-22T20:59:23.435Z,-0.03
2023-02-22T21:01:53.768Z,0.17
2023-02-22T21:04:25.670Z,0.21
2023-02-22T21:06:54.394Z,0.06
2023-02-22T21:09:23.260Z,0.09
2023-02-22T21:11:52.048Z,0.13
2023-02-22T21:14:21.677Z,0.18
2023-02-22T21:16:52.231Z,0.21
2023-02-22T21:19:27.556Z,0.19
2023-02-22T21:22:00.310Z,0.03
2023-02-22T21:24:30.009Z,0.01
2023-02-22T21:26:59.399Z,0.01
2023-02-22T21:29:29.439Z,-0.06
2023-02-22T21:31:58.303Z,0.03
2023-02-22T21:34:27.151Z,0.02
2023-02-22T21:36:56.149Z,-0.13
2023-02-22T21:39:28.941Z,-0.13
2023-02-22T21:42:01.415Z,-0.18
2023-02-22T21:44:30.555Z,-0.06
2023-02-22T21:46:59.416Z,-0.18
2023-02-22T21:49:29.057Z,-0.33
2023-02-22T21:51:58.298Z,-0.20
2023-02-22T21:54:28.844Z,-0.25
2023-02-22T21:56:57.426Z,-0.13
2023-02-22T21:59:26.254Z,-0.26
2023-02-22T22:01:56.759Z,-0.36
2023-02-22T22:04:30.819Z,-0.30
2023-02-22T22:07:02.144Z,-0.13
2023-02-22T22:09:36.192Z,-0.23
2023-02-22T22:12:11.282Z,-0.38
2023-02-22T22:14:41.035Z,-0.62
2023-02-22T22:17:12.829Z,-0.29
2023-02-22T22:19:42.320Z,-0.16
2023-02-22T22:22:11.378Z,-0.23
2023-02-22T22:24:42.492Z,-0.22
2023-02-22T22:27:13.648Z,-0.38
2023-02-22T22:29:44.166Z,-0.33
2023-02-22T22:32:13.121Z,-0.34
2023-02-22T22:34:43.382Z,-0.45
2023-02-22T22:37:12.074Z,-0.65
2023-02-22T22:39:40.937Z,-0.65
2023-02-22T22:42:10.110Z,-0.97
2023-02-22T22:44:42.751Z,-1.03
2023-02-22T22:47:14.657Z,-1.32
2023-02-22T22:49:43.426Z,-1.39
2023-02-22T22:52:19.754Z,-1.48
2023-02-22T22:54:48.446Z,-1.74
2023-02-22T22:57:17.757Z,-1.80
2023-02-22T22:59:46.593Z,-1.93
2023-02-22T23:02:15.295Z,-2.09
2023-02-22T23:04:44.086Z,-2.18
2023-02-22T23:07:14.080Z,-2.53
2023-02-22T23:09:42.858Z,-2.29
2023-02-22T23:12:31.712Z,-2.39
2023-02-22T23:15:00.528Z,-2.54
2023-02-22T23:17:34.885Z,-2.60
2023-02-22T23:20:11.901Z,-2.60
2023-02-22T23:22:44.436Z,-2.63
2023-02-22T23:25:13.131Z,-2.85
2023-02-22T23:27:41.994Z,-2.91
2023-02-22T23:30:15.788Z,-3.01
2023-02-22T23:32:47.137Z,-3.13
2023-02-22T23:35:16.886Z,-3.03
2023-02-22T23:37:47.069Z,-3.37
2023-02-22T23:40:19.441Z,-3.36
2023-02-22T23:42:50.113Z,-3.40
2023-02-22T23:45:24.642Z,-3.96
2023-02-22T23:47:55.785Z,-3.47
2023-02-22T23:50:29.906Z,-3.63
2023-02-22T23:53:00.976Z,-4.21
2023-02-22T23:55:32.388Z,-3.82
2023-02-22T23:58:01.195Z,-4.03
